Time;durP1;ratioP1;P1;durP2;ratioP2;P2;SDS_P1;SDS_P2;PMS_P1;PMS_P2;Temp;Humidity;BMP_temperature;BMP_pressure;BME280_temperature;BME280_humidity;BME280_pressure;Samples;Min_cycle;Max_cycle;Signal;HPM_P1;HPM_P2
2021/10/11 00:00:37;;;;;;;18.67;10.50;;;12.10;99.90;;;;;;6056193;23;20018;-89
2021/10/11 00:03:03;;;;;;;17.58;9.95;;;12.10;99.90;;;;;;6056884;23;20013;-90
2021/10/11 00:05:29;;;;;;;17.80;8.63;;;12.10;99.90;;;;;;6056780;23;20018;-89
2021/10/11 00:07:55;;;;;;;16.95;8.85;;;12.10;99.90;;;;;;6056282;23;20007;-89
2021/10/11 00:10:20;;;;;;;13.25;6.57;;;12.00;99.90;;;;;;6056669;23;20011;-90
2021/10/11 00:12:48;;;;;;;10.70;5.97;;;12.10;99.90;;;;;;6056657;23;20011;-89
2021/10/11 00:15:14;;;;;;;9.32;5.28;;;12.00;99.90;;;;;;6056420;23;20007;-89
2021/10/11 00:17:41;;;;;;;9.27;4.20;;;12.10;99.90;;;;;;6056409;23;20011;-89
2021/10/11 00:20:07;;;;;;;7.35;3.50;;;12.00;99.90;;;;;;6056528;23;20018;-89
2021/10/11 00:22:32;;;;;;;8.68;3.05;;;12.00;99.90;;;;;;6056612;23;20102;-88
2021/10/11 00:24:58;;;;;;;5.72;3.10;;;12.00;99.90;;;;;;6077323;23;20010;-89
2021/10/11 00:27:24;;;;;;;7.28;2.55;;;12.00;99.90;;;;;;6086636;23;20141;-89
2021/10/11 00:29:49;;;;;;;7.78;3.20;;;12.00;99.90;;;;;;6062679;23;20034;-88
2021/10/11 00:32:15;;;;;;;5.57;2.38;;;12.00;99.90;;;;;;6062314;23;20057;-88
2021/10/11 00:34:41;;;;;;;6.57;2.80;;;12.00;99.90;;;;;;6086255;23;20033;-88
2021/10/11 00:37:06;;;;;;;6.43;2.33;;;12.00;99.90;;;;;;6086316;23;20018;-88
2021/10/11 00:39:32;;;;;;;5.95;2.00;;;12.00;99.90;;;;;;6086388;23;20014;-89
2021/10/11 00:41:58;;;;;;;5.53;2.10;;;12.00;99.90;;;;;;6062284;23;20007;-89
2021/10/11 00:44:43;;;;;;;7.07;2.72;;;11.90;99.90;;;;;;6086211;23;20010;-88
2021/10/11 00:47:10;;;;;;;5.25;1.55;;;11.90;99.90;;;;;;6005153;23;20093;-88
2021/10/11 00:49:35;;;;;;;8.70;2.42;;;11.90;99.90;;;;;;6085240;23;20022;-89
2021/10/11 00:52:01;;;;;;;6.03;1.75;;;11.90;99.90;;;;;;6061248;23;20021;-89
2021/10/11 00:54:29;;;;;;;6.70;2.13;;;11.90;99.90;;;;;;6061089;23;20013;-88
2021/10/11 00:56:54;;;;;;;5.15;1.75;;;11.80;99.90;;;;;;6060900;23;20030;-88
2021/10/11 00:59:20;;;;;;;7.18;2.47;;;11.80;99.90;;;;;;6061205;23;20029;-87
2021/10/11 01:01:45;;;;;;;8.32;2.53;;;11.80;99.90;;;;;;6061031;23;20022;-88
2021/10/11 01:04:12;;;;;;;8.90;3.35;;;11.80;99.90;;;;;;6061204;23;20010;-88
2021/10/11 01:06:40;;;;;;;7.88;2.83;;;11.70;99.90;;;;;;6060659;23;20050;-89
2021/10/11 01:09:07;;;;;;;6.20;2.90;;;11.70;99.90;;;;;;6085116;23;20010;-89
2021/10/11 01:11:35;;;;;;;9.07;2.75;;;11.70;99.90;;;;;;6085045;23;20033;-89
2021/10/11 01:14:01;;;;;;;7.55;3.05;;;11.70;99.90;;;;;;6061475;23;20073;-89
2021/10/11 01:16:27;;;;;;;9.45;3.17;;;11.70;99.90;;;;;;6060763;23;20010;-89
2021/10/11 01:18:52;;;;;;;9.63;3.30;;;11.70;99.90;;;;;;6109078;23;20011;-88
2021/10/11 01:21:18;;;;;;;6.55;2.72;;;11.60;99.90;;;;;;6084768;23;20022;-88
2021/10/11 01:23:44;;;;;;;7.85;2.47;;;11.60;99.90;;;;;;6088690;23;20007;-89
2021/10/11 01:26:09;;;;;;;8.48;2.88;;;11.60;99.90;;;;;;6090995;23;20010;-89
2021/10/11 01:28:35;;;;;;;5.53;1.88;;;11.50;99.90;;;;;;6090959;23;20490;-88
2021/10/11 01:31:01;;;;;;;4.70;1.80;;;11.50;99.90;;;;;;6091229;23;20033;-89
2021/10/11 01:33:26;;;;;;;5.93;1.90;;;11.50;99.90;;;;;;6114957;23;20013;-88
2021/10/11 01:35:52;;;;;;;5.63;1.77;;;11.40;99.90;;;;;;6091390;23;20399;-89
2021/10/11 01:38:18;;;;;;;8.93;1.20;;;11.40;99.90;;;;;;6090649;23;20038;-88
2021/10/11 01:40:43;;;;;;;5.85;0.93;;;11.40;99.90;;;;;;6115010;23;20028;-89
2021/10/11 01:43:09;;;;;;;4.95;0.93;;;11.40;99.90;;;;;;6090837;23;20012;-89
2021/10/11 01:45:36;;;;;;;6.18;0.98;;;11.40;99.90;;;;;;6090431;23;20014;-89
2021/10/11 01:48:03;;;;;;;6.95;1.02;;;11.40;99.90;;;;;;6085726;23;20018;-89
2021/10/11 01:50:29;;;;;;;3.38;0.60;;;11.40;99.90;;;;;;6111563;23;20010;-89
2021/10/11 01:52:55;;;;;;;8.80;1.17;;;11.30;99.90;;;;;;6086229;23;20018;-89
2021/10/11 01:55:21;;;;;;;5.43;0.73;;;11.30;99.90;;;;;;6085953;23;20017;-89
2021/10/11 01:57:47;;;;;;;4.28;0.65;;;11.40;99.90;;;;;;6085803;23;20017;-89
2021/10/11 02:00:13;;;;;;;8.55;1.02;;;11.40;99.90;;;;;;6085956;23;20070;-88
2021/10/11 02:02:39;;;;;;;3.40;0.80;;;11.50;99.90;;;;;;6085637;23;20368;-88
2021/10/11 02:05:07;;;;;;;5.43;0.90;;;11.50;99.90;;;;;;6085928;23;20010;-88
2021/10/11 02:07:32;;;;;;;6.70;0.90;;;11.50;99.90;;;;;;6085642;23;20038;-88
2021/10/11 02:09:58;;;;;;;8.60;1.10;;;11.50;99.90;;;;;;6085948;23;20006;-88
2021/10/11 02:12:24;;;;;;;8.35;1.30;;;11.50;99.90;;;;;;6061981;23;20046;-89
2021/10/11 02:14:49;;;;;;;6.25;1.33;;;11.50;99.90;;;;;;6061829;23;20014;-88
2021/10/11 02:17:16;;;;;;;6.72;1.25;;;11.60;99.90;;;;;;6085597;23;20074;-88
2021/10/11 02:19:42;;;;;;;5.22;1.08;;;11.60;99.90;;;;;;6061734;23;20025;-88
2021/10/11 02:22:09;;;;;;;5.70;0.82;;;11.60;99.90;;;;;;6086094;23;20365;-88
2021/10/11 02:24:35;;;;;;;6.65;1.27;;;11.50;99.90;;;;;;6085308;23;20013;-88
2021/10/11 02:27:00;;;;;;;10.18;2.03;;;11.60;99.90;;;;;;6085569;23;20015;-88
2021/10/11 02:29:31;;;;;;;9.45;1.58;;;11.60;99.90;;;;;;6085552;23;20007;-87
2021/10/11 02:31:56;;;;;;;5.75;1.42;;;11.60;99.90;;;;;;6085952;23;20022;-87
2021/10/11 02:34:23;;;;;;;10.23;1.85;;;11.50;99.90;;;;;;6085802;23;20011;-88
2021/10/11 02:36:48;;;;;;;7.85;1.00;;;11.60;99.90;;;;;;6061636;23;20014;-89
2021/10/11 02:39:14;;;;;;;8.00;0.90;;;11.40;99.90;;;;;;6109458;23;19998;-88
2021/10/11 02:41:40;;;;;;;8.13;1.30;;;11.30;99.90;;;;;;6085562;23;20022;-88
2021/10/11 02:44:05;;;;;;;11.25;1.67;;;11.20;99.90;;;;;;6061783;23;20006;-87
2021/10/11 02:46:34;;;;;;;10.20;1.80;;;11.20;99.90;;;;;;6085489;23;20420;-88
2021/10/11 02:49:01;;;;;;;9.40;1.20;;;11.20;99.90;;;;;;6107823;23;20025;-88
2021/10/11 02:51:26;;;;;;;8.18;1.20;;;11.20;99.90;;;;;;6114818;23;20006;-88
2021/10/11 02:53:52;;;;;;;7.93;1.38;;;11.20;99.90;;;;;;6114702;23;20057;-88
2021/10/11 02:56:20;;;;;;;12.90;1.38;;;11.30;99.90;;;;;;6090508;23;20034;-88
2021/10/11 02:58:46;;;;;;;8.73;0.95;;;11.30;99.90;;;;;;6116388;23;20057;-88
2021/10/11 03:01:14;;;;;;;6.35;1.00;;;11.20;99.90;;;;;;6116286;23;20487;-88
2021/10/11 03:03:40;;;;;;;4.03;0.90;;;11.20;99.90;;;;;;6116346;23;20010;-89
2021/10/11 03:06:06;;;;;;;5.80;0.90;;;11.20;99.90;;;;;;6092180;23;20374;-89
2021/10/11 03:08:36;;;;;;;9.38;1.48;;;11.00;99.90;;;;;;6115989;23;20010;-88
2021/10/11 03:11:03;;;;;;;8.98;1.27;;;10.90;99.90;;;;;;6116135;23;20024;-87
2021/10/11 03:13:29;;;;;;;6.35;1.42;;;11.00;99.90;;;;;;6116220;23;20013;-88
2021/10/11 03:15:55;;;;;;;5.00;1.00;;;10.90;99.90;;;;;;6116163;23;20009;-88
2021/10/11 03:18:21;;;;;;;7.90;1.20;;;10.80;99.90;;;;;;6116044;23;20010;-87
2021/10/11 03:20:47;;;;;;;6.30;1.02;;;10.70;99.90;;;;;;6116277;23;20025;-88
2021/10/11 03:23:12;;;;;;;4.20;0.70;;;10.70;99.90;;;;;;6092003;23;20494;-88
2021/10/11 03:25:38;;;;;;;8.90;1.00;;;10.50;99.90;;;;;;6092173;23;20060;-88
2021/10/11 03:28:04;;;;;;;5.40;0.63;;;10.50;99.90;;;;;;6092423;23;20006;-88
2021/10/11 03:30:31;;;;;;;5.50;0.63;;;10.40;99.90;;;;;;6115946;23;20036;-87
2021/10/11 03:32:56;;;;;;;3.30;0.60;;;10.30;99.90;;;;;;6116052;23;20037;-88
2021/10/11 03:35:23;;;;;;;6.30;0.73;;;10.20;99.90;;;;;;6116036;23;20010;-88
2021/10/11 03:37:49;;;;;;;7.10;0.75;;;10.20;99.90;;;;;;6091785;23;20032;-87
2021/10/11 03:40:15;;;;;;;6.13;1.27;;;10.10;99.90;;;;;;6116053;23;20061;-88
2021/10/11 03:42:40;;;;;;;8.50;0.85;;;10.10;99.90;;;;;;6115818;23;20033;-88
2021/10/11 03:45:06;;;;;;;5.82;0.65;;;10.00;99.90;;;;;;6115820;23;20006;-87
2021/10/11 03:47:32;;;;;;;5.60;0.85;;;9.90;99.90;;;;;;6115341;23;20082;-87
2021/10/11 03:49:59;;;;;;;3.80;0.50;;;9.90;99.90;;;;;;6091668;23;20009;-88
2021/10/11 03:52:24;;;;;;;5.72;0.70;;;10.00;99.90;;;;;;6116022;23;20462;-88
2021/10/11 03:54:50;;;;;;;4.72;0.70;;;10.00;99.90;;;;;;6091679;23;20010;-88
2021/10/11 03:57:16;;;;;;;4.38;0.70;;;10.00;99.90;;;;;;6091425;23;20037;-88
2021/10/11 03:59:42;;;;;;;8.68;1.02;;;10.00;99.90;;;;;;6091369;23;20329;-89
2021/10/11 04:02:07;;;;;;;4.72;0.80;;;9.90;99.90;;;;;;6115723;23;20010;-89
2021/10/11 04:04:34;;;;;;;5.30;1.00;;;10.00;99.90;;;;;;6091802;23;20062;-89
2021/10/11 04:07:08;;;;;;;9.68;0.88;;;10.00;99.90;;;;;;6091331;23;20033;-87
2021/10/11 04:09:34;;;;;;;6.72;0.90;;;10.00;99.90;;;;;;6115360;23;20032;-89
2021/10/11 04:12:06;;;;;;;5.25;0.82;;;9.90;99.90;;;;;;6091394;23;20010;-88
2021/10/11 04:14:33;;;;;;;8.32;1.00;;;9.90;99.90;;;;;;6115405;23;20474;-88
2021/10/11 04:16:59;;;;;;;4.88;0.98;;;9.80;99.90;;;;;;6115627;23;20006;-88
2021/10/11 04:19:25;;;;;;;7.90;0.85;;;9.80;99.90;;;;;;6115243;23;20014;-89
2021/10/11 04:21:51;;;;;;;7.20;1.10;;;9.80;99.90;;;;;;6115302;23;20010;-89
2021/10/11 04:24:17;;;;;;;4.28;0.70;;;9.70;99.90;;;;;;6091246;23;20010;-89
2021/10/11 04:26:42;;;;;;;3.60;0.60;;;9.60;99.90;;;;;;6139930;23;20006;-89
2021/10/11 04:29:08;;;;;;;7.95;0.73;;;9.60;99.90;;;;;;6091174;23;20013;-88
2021/10/11 04:31:34;;;;;;;3.05;0.50;;;9.50;99.90;;;;;;6115467;23;20298;-88
2021/10/11 04:33:59;;;;;;;5.00;0.60;;;9.40;99.90;;;;;;6091318;23;20014;-88
2021/10/11 04:36:26;;;;;;;4.22;0.57;;;9.40;99.90;;;;;;6090924;23;20017;-89
2021/10/11 04:38:52;;;;;;;1.48;0.50;;;9.40;99.90;;;;;;6115381;23;20009;-89
2021/10/11 04:41:18;;;;;;;4.10;0.50;;;9.20;99.90;;;;;;6086246;23;20045;-89
2021/10/11 04:43:44;;;;;;;3.80;0.50;;;9.20;99.90;;;;;;6089737;23;20006;-89
2021/10/11 04:46:10;;;;;;;3.75;0.50;;;9.10;99.90;;;;;;6090996;23;20117;-89
2021/10/11 04:48:35;;;;;;;2.22;0.40;;;9.00;99.90;;;;;;6115221;23;20014;-88
2021/10/11 04:51:01;;;;;;;3.97;0.50;;;9.00;99.90;;;;;;6115510;23;20077;-89
2021/10/11 04:53:27;;;;;;;3.28;0.70;;;9.00;99.90;;;;;;6091288;23;20013;-88
2021/10/11 04:55:52;;;;;;;2.60;0.47;;;9.00;99.90;;;;;;6091123;23;20002;-89
2021/10/11 04:58:18;;;;;;;1.52;0.40;;;8.90;99.90;;;;;;6090876;23;20021;-89
2021/10/11 05:00:44;;;;;;;2.58;0.47;;;8.90;99.90;;;;;;6114794;23;20104;-90
2021/10/11 05:03:09;;;;;;;2.58;0.40;;;8.90;99.90;;;;;;6115688;23;20006;-90
2021/10/11 05:05:35;;;;;;;2.75;0.40;;;8.90;99.90;;;;;;6115613;23;20016;-89
2021/10/11 05:08:02;;;;;;;7.05;0.60;;;9.00;99.90;;;;;;6115420;23;20010;-88
2021/10/11 05:10:27;;;;;;;6.35;1.00;;;9.20;99.90;;;;;;6117135;23;20010;-90
2021/10/11 05:12:53;;;;;;;8.43;0.85;;;9.20;99.90;;;;;;6091643;23;20013;-89
2021/10/11 05:15:19;;;;;;;4.20;0.70;;;9.30;99.90;;;;;;6115347;23;20061;-90
2021/10/11 05:17:45;;;;;;;7.05;0.60;;;9.30;99.90;;;;;;6114759;23;20002;-89
2021/10/11 05:20:11;;;;;;;6.78;0.93;;;9.20;99.90;;;;;;6090574;23;20025;-89
2021/10/11 05:22:37;;;;;;;7.50;1.40;;;9.20;99.90;;;;;;6115008;23;20006;-90
2021/10/11 05:25:04;;;;;;;4.57;0.60;;;9.10;99.90;;;;;;6115209;23;20403;-89
2021/10/11 05:27:31;;;;;;;4.57;0.82;;;9.10;99.90;;;;;;6114642;23;20029;-89
2021/10/11 05:29:58;;;;;;;7.03;0.73;;;9.10;99.90;;;;;;6115065;23;20017;-89
2021/10/11 05:32:24;;;;;;;4.30;0.70;;;9.10;99.90;;;;;;6114821;23;20522;-89
2021/10/11 05:34:50;;;;;;;4.05;0.60;;;9.10;99.90;;;;;;6115045;23;20010;-89
2021/10/11 05:37:17;;;;;;;4.75;0.95;;;9.00;99.90;;;;;;6114744;23;20002;-90
2021/10/11 05:39:43;;;;;;;3.97;0.60;;;9.10;99.90;;;;;;6114786;23;20081;-90
2021/10/11 05:42:08;;;;;;;6.00;1.10;;;9.10;99.90;;;;;;6114666;23;20076;-90
2021/10/11 05:44:54;;;;;;;7.18;0.80;;;9.20;99.90;;;;;;6090399;23;20525;-88
2021/10/11 05:47:20;;;;;;;4.00;0.60;;;9.10;99.90;;;;;;6055747;23;20003;-87
2021/10/11 05:49:45;;;;;;;5.30;0.70;;;9.00;99.90;;;;;;6032611;23;20045;-89
2021/10/11 05:52:11;;;;;;;6.80;0.75;;;9.10;99.90;;;;;;6055915;23;20015;-89
2021/10/11 05:54:37;;;;;;;4.82;1.17;;;9.10;99.90;;;;;;6032081;23;20006;-89
2021/10/11 05:57:03;;;;;;;3.15;0.70;;;9.10;99.90;;;;;;6032001;23;20014;-89
2021/10/11 05:59:29;;;;;;;6.57;0.90;;;9.10;99.90;;;;;;6031941;23;20015;-89
2021/10/11 06:01:54;;;;;;;5.07;1.30;;;9.20;99.90;;;;;;6032331;23;20038;-89
2021/10/11 06:04:20;;;;;;;4.38;0.88;;;9.20;99.90;;;;;;6032433;23;20006;-89
2021/10/11 06:06:47;;;;;;;6.30;1.08;;;9.10;99.90;;;;;;6080104;23;20022;-89
2021/10/11 06:09:12;;;;;;;5.65;1.98;;;9.10;99.90;;;;;;6032197;23;20011;-90
2021/10/11 06:11:39;;;;;;;8.05;1.25;;;9.20;99.90;;;;;;6031575;23;20015;-89
2021/10/11 06:14:05;;;;;;;7.35;1.23;;;9.20;99.90;;;;;;6031664;23;20067;-88
2021/10/11 06:16:30;;;;;;;4.35;1.17;;;9.20;99.90;;;;;;6030754;23;20018;-89
2021/10/11 06:18:56;;;;;;;8.07;1.40;;;9.30;99.90;;;;;;6031638;23;20027;-88
2021/10/11 06:21:22;;;;;;;4.78;1.35;;;9.30;99.90;;;;;;6031191;23;20034;-89
2021/10/11 06:23:50;;;;;;;4.25;1.10;;;9.20;99.90;;;;;;6046143;23;20006;-89
2021/10/11 06:26:16;;;;;;;5.25;1.70;;;9.30;99.90;;;;;;6089993;23;20006;-89
2021/10/11 06:28:42;;;;;;;4.88;0.80;;;9.30;99.90;;;;;;6089968;23;20021;-88
2021/10/11 06:31:08;;;;;;;4.60;1.45;;;9.30;99.90;;;;;;6089955;23;20016;-88
2021/10/11 06:33:33;;;;;;;4.68;1.70;;;9.40;99.90;;;;;;6115795;23;20056;-89
2021/10/11 06:35:59;;;;;;;9.00;2.25;;;9.40;99.90;;;;;;6091522;23;20056;-89
2021/10/11 06:38:25;;;;;;;5.10;1.38;;;9.40;99.90;;;;;;6115891;23;20092;-88
2021/10/11 06:40:52;;;;;;;6.88;0.95;;;9.40;99.90;;;;;;6116276;23;20018;-89
2021/10/11 06:43:18;;;;;;;11.57;1.83;;;9.50;99.90;;;;;;6115924;23;20006;-90
2021/10/11 06:45:44;;;;;;;9.98;1.70;;;9.50;99.90;;;;;;6115541;23;20010;-89
2021/10/11 06:48:10;;;;;;;6.38;1.45;;;9.50;99.90;;;;;;6110502;23;20506;-89
2021/10/11 06:50:36;;;;;;;9.18;1.58;;;9.50;99.90;;;;;;6091592;23;20066;-89
2021/10/11 06:53:03;;;;;;;9.40;2.38;;;9.60;99.90;;;;;;6115490;23;20426;-89
2021/10/11 06:55:29;;;;;;;8.57;1.70;;;9.60;99.90;;;;;;6115686;23;20014;-89
2021/10/11 06:57:54;;;;;;;8.43;1.63;;;9.60;99.90;;;;;;6115197;23;20435;-89
2021/10/11 07:00:20;;;;;;;12.18;2.35;;;9.60;99.90;;;;;;6115643;23;20009;-89
2021/10/11 07:02:46;;;;;;;14.32;1.58;;;9.70;99.90;;;;;;6115531;23;20040;-88
2021/10/11 07:05:11;;;;;;;10.35;1.25;;;9.70;99.90;;;;;;6115123;23;20009;-87
2021/10/11 07:07:41;;;;;;;7.13;1.20;;;9.70;99.90;;;;;;6091611;23;20026;-88
2021/10/11 07:10:08;;;;;;;8.07;1.08;;;9.70;99.90;;;;;;6115670;23;20030;-88
2021/10/11 07:12:34;;;;;;;6.97;1.40;;;9.70;99.90;;;;;;6115585;23;20010;-88
2021/10/11 07:15:00;;;;;;;7.50;1.35;;;9.80;99.90;;;;;;6115427;23;20078;-88
2021/10/11 07:17:26;;;;;;;11.20;1.42;;;9.80;99.90;;;;;;6090359;23;20002;-88
2021/10/11 07:19:52;;;;;;;15.95;1.33;;;9.80;99.90;;;;;;6091427;23;20249;-88
2021/10/11 07:22:18;;;;;;;6.78;1.40;;;9.80;99.90;;;;;;6091049;23;20018;-88
2021/10/11 07:24:45;;;;;;;7.55;1.33;;;9.90;99.90;;;;;;6115058;23;20013;-88
2021/10/11 07:27:14;;;;;;;10.55;1.05;;;9.90;99.90;;;;;;6115097;23;20041;-88
2021/10/11 07:29:40;;;;;;;8.02;1.17;;;10.00;99.90;;;;;;6115463;23;20013;-88
2021/10/11 07:32:07;;;;;;;4.97;0.95;;;10.10;99.90;;;;;;6114979;23;20010;-88
2021/10/11 07:34:34;;;;;;;6.90;1.20;;;10.00;99.90;;;;;;6115056;23;20394;-88
2021/10/11 07:37:00;;;;;;;6.50;1.10;;;10.10;99.90;;;;;;6090927;23;20002;-88
2021/10/11 07:39:26;;;;;;;7.90;1.27;;;10.10;99.90;;;;;;6115032;23;20096;-88
2021/10/11 07:41:52;;;;;;;5.63;0.98;;;10.10;99.90;;;;;;6091143;23;20120;-88
2021/10/11 07:44:17;;;;;;;10.68;1.10;;;10.20;99.90;;;;;;6090390;23;20059;-88
2021/10/11 07:46:43;;;;;;;7.13;0.93;;;10.20;99.90;;;;;;6091123;23;20006;-88
2021/10/11 07:49:09;;;;;;;8.45;1.25;;;10.40;99.90;;;;;;6114780;23;20013;-87
2021/10/11 07:51:36;;;;;;;6.40;1.05;;;10.40;99.90;;;;;;6114993;23;20071;-87
2021/10/11 07:54:02;;;;;;;7.30;1.15;;;10.50;99.90;;;;;;6115000;23;20041;-88
2021/10/11 07:56:28;;;;;;;5.78;0.88;;;10.50;99.90;;;;;;6114964;23;20006;-88
2021/10/11 07:58:54;;;;;;;10.40;1.23;;;10.60;99.90;;;;;;6114944;23;20065;-87
2021/10/11 08:01:20;;;;;;;13.95;1.67;;;10.60;99.90;;;;;;6115205;23;20042;-88
2021/10/11 08:03:46;;;;;;;8.73;1.40;;;10.60;99.90;;;;;;6114549;23;20013;-87
2021/10/11 08:06:12;;;;;;;11.32;1.40;;;10.70;99.90;;;;;;6114768;23;20085;-88
2021/10/11 08:08:37;;;;;;;7.18;1.20;;;10.60;99.90;;;;;;6114706;23;20028;-87
2021/10/11 08:11:03;;;;;;;4.70;1.13;;;10.70;99.90;;;;;;6115129;23;20109;-88
2021/10/11 08:13:29;;;;;;;13.05;1.83;;;10.80;99.90;;;;;;6114826;23;20013;-89
2021/10/11 08:15:58;;;;;;;9.85;1.30;;;10.80;99.90;;;;;;6114718;23;20057;-88
2021/10/11 08:18:24;;;;;;;6.50;1.25;;;11.10;99.90;;;;;;6114474;23;20017;-88
2021/10/11 08:20:50;;;;;;;5.70;1.00;;;11.30;99.90;;;;;;6114707;23;20018;-87
2021/10/11 08:23:17;;;;;;;9.65;2.78;;;11.40;99.90;;;;;;6114654;23;20002;-87
2021/10/11 08:25:43;;;;;;;10.27;1.83;;;11.30;99.90;;;;;;6114546;23;20053;-88
2021/10/11 08:28:08;;;;;;;8.57;1.30;;;11.20;99.90;;;;;;6138962;23;20096;-87
2021/10/11 08:30:34;;;;;;;8.57;1.40;;;11.30;99.90;;;;;;6114944;23;20495;-87
2021/10/11 08:33:00;;;;;;;10.65;1.38;;;11.30;99.90;;;;;;6114327;23;20006;-87
2021/10/11 08:35:26;;;;;;;12.90;1.98;;;11.40;99.90;;;;;;6114281;23;20016;-87
2021/10/11 08:37:51;;;;;;;6.45;1.42;;;11.50;99.90;;;;;;6113924;23;20014;-87
2021/10/11 08:40:18;;;;;;;10.43;1.58;;;11.50;99.90;;;;;;6114193;23;20026;-88
2021/10/11 08:42:45;;;;;;;11.00;1.80;;;11.50;99.90;;;;;;6114798;23;20029;-87
2021/10/11 08:45:11;;;;;;;6.35;1.55;;;11.40;99.90;;;;;;6114510;23;20016;-88
2021/10/11 08:47:37;;;;;;;10.32;1.70;;;11.60;99.90;;;;;;6114091;23;20010;-88
2021/10/11 08:50:04;;;;;;;7.65;1.42;;;11.60;99.90;;;;;;6114373;23;20006;-88
2021/10/11 08:52:30;;;;;;;5.20;1.02;;;11.70;99.90;;;;;;6090692;23;20006;-88
2021/10/11 08:54:56;;;;;;;6.45;1.23;;;11.80;99.90;;;;;;6114112;23;20014;-88
2021/10/11 08:57:29;;;;;;;9.43;1.20;;;11.90;99.90;;;;;;6114230;23;20066;-89
2021/10/11 09:00:08;;;;;;;7.25;1.30;;;11.80;99.90;;;;;;6114118;23;20018;-88
2021/10/11 09:02:34;;;;;;;9.65;1.27;;;11.90;99.90;;;;;;6114669;23;20005;-87
2021/10/11 09:05:00;;;;;;;9.32;1.50;;;11.90;99.90;;;;;;6090397;23;20016;-88
2021/10/11 09:07:28;;;;;;;5.22;0.80;;;11.90;99.90;;;;;;6114228;23;20062;-88
2021/10/11 09:09:59;;;;;;;11.40;1.75;;;11.90;99.90;;;;;;6114245;23;20299;-87
2021/10/11 09:12:27;;;;;;;5.63;0.80;;;11.90;99.90;;;;;;6090176;23;20021;-87
2021/10/11 09:15:13;;;;;;;9.50;1.10;;;12.00;99.90;;;;;;6113860;23;19998;-87
2021/10/11 09:17:51;;;;;;;11.45;1.83;;;12.10;99.90;;;;;;6114175;23;20010;-87
2021/10/11 09:20:20;;;;;;;4.97;0.80;;;12.20;99.90;;;;;;6113917;23;20014;-87
2021/10/11 09:22:47;;;;;;;5.90;1.48;;;12.20;99.90;;;;;;6114287;23;20006;-87
2021/10/11 09:25:14;;;;;;;6.18;1.67;;;12.40;99.90;;;;;;6113808;23;20010;-87
2021/10/11 09:27:52;;;;;;;8.45;1.60;;;12.40;99.90;;;;;;6114205;23;20032;-88
2021/10/11 09:30:20;;;;;;;8.13;1.30;;;12.40;99.90;;;;;;6114134;23;20022;-88
2021/10/11 09:32:47;;;;;;;7.40;1.33;;;12.60;99.90;;;;;;6090048;23;20023;-88
2021/10/11 09:35:18;;;;;;;7.72;1.27;;;12.70;99.90;;;;;;6113831;23;20081;-88
2021/10/11 09:37:51;;;;;;;6.32;0.90;;;12.80;99.90;;;;;;6138338;23;20010;-88
2021/10/11 09:40:19;;;;;;;6.55;1.15;;;12.80;99.90;;;;;;6113941;23;20018;-88
2021/10/11 09:42:45;;;;;;;9.68;0.90;;;12.80;99.90;;;;;;6113905;23;20006;-87
2021/10/11 09:45:11;;;;;;;7.80;1.42;;;13.00;99.90;;;;;;6113751;23;20021;-88
2021/10/11 09:47:38;;;;;;;10.02;1.23;;;13.00;99.90;;;;;;6113610;23;20017;-87
2021/10/11 09:50:08;;;;;;;4.65;0.90;;;13.00;99.90;;;;;;6114096;23;20321;-88
2021/10/11 09:52:34;;;;;;;7.70;1.13;;;13.10;99.90;;;;;;6114260;23;20010;-88
2021/10/11 09:55:00;;;;;;;10.70;0.80;;;13.10;99.90;;;;;;6114076;23;20249;-88
2021/10/11 09:57:27;;;;;;;12.93;1.80;;;13.10;99.90;;;;;;6113607;23;20006;-88
2021/10/11 09:59:53;;;;;;;4.88;0.90;;;13.10;99.90;;;;;;6113672;23;20014;-88
2021/10/11 10:02:25;;;;;;;7.82;1.50;;;13.20;99.90;;;;;;6090070;23;20056;-87
2021/10/11 10:04:55;;;;;;;8.52;1.05;;;13.30;99.90;;;;;;6113929;23;20041;-87
2021/10/11 10:07:22;;;;;;;6.32;0.88;;;13.30;99.90;;;;;;6091193;23;20006;-87
2021/10/11 10:09:51;;;;;;;8.38;1.40;;;13.40;99.90;;;;;;6092192;23;20047;-88
2021/10/11 10:12:17;;;;;;;11.75;1.08;;;13.30;99.90;;;;;;6115998;23;20010;-88
2021/10/11 10:14:43;;;;;;;8.18;0.98;;;13.20;99.90;;;;;;6091620;23;20049;-87
2021/10/11 10:17:08;;;;;;;13.00;1.10;;;13.10;99.90;;;;;;6091429;23;20010;-87
2021/10/11 10:19:39;;;;;;;11.13;1.25;;;13.20;99.90;;;;;;6091591;23;20006;-87
2021/10/11 10:22:17;;;;;;;8.02;0.90;;;13.30;99.90;;;;;;6115575;23;20070;-88
2021/10/11 10:24:43;;;;;;;7.78;0.70;;;13.30;99.90;;;;;;6116131;23;20021;-87
2021/10/11 10:27:13;;;;;;;10.80;0.93;;;13.40;99.90;;;;;;6115408;23;20006;-88
2021/10/11 10:29:46;;;;;;;;;;;13.40;99.90;;;;;;6116282;23;20006;-88
2021/10/11 10:32:17;;;;;;;4.65;1.02;;;13.50;99.90;;;;;;6115685;23;19909;-88
2021/10/11 10:34:46;;;;;;;11.85;0.80;;;13.50;99.90;;;;;;6115676;23;20100;-87
2021/10/11 10:37:13;;;;;;;14.13;1.13;;;13.50;99.90;;;;;;6115271;23;20014;-88
2021/10/11 10:39:49;;;;;;;10.85;1.50;;;13.50;99.90;;;;;;6115868;23;20443;-87
2021/10/11 10:42:29;;;;;;;8.23;1.00;;;13.50;99.90;;;;;;6115457;23;20010;-88
2021/10/11 10:44:56;;;;;;;5.53;0.68;;;13.50;99.90;;;;;;6115342;23;20010;-86
2021/10/11 10:47:33;;;;;;;4.72;0.73;;;13.70;99.90;;;;;;6115085;23;20033;-88
2021/10/11 10:49:59;;;;;;;7.78;1.20;;;14.20;99.90;;;;;;6115626;23;20010;-88
2021/10/11 10:52:24;;;;;;;5.35;0.95;;;14.10;99.90;;;;;;6115307;23;20006;-88
2021/10/11 10:54:55;;;;;;;9.63;0.90;;;14.10;99.90;;;;;;6141624;23;20034;-87
2021/10/11 10:57:23;;;;;;;9.15;0.90;;;14.10;99.90;;;;;;6115370;23;20044;-87
2021/10/11 10:59:54;;;;;;;7.28;0.80;;;14.20;99.90;;;;;;6115415;23;20014;-88
2021/10/11 11:02:20;;;;;;;9.95;0.77;;;14.10;99.90;;;;;;6115327;23;20014;-88
2021/10/11 11:04:56;;;;;;;6.18;0.70;;;14.20;99.90;;;;;;6091323;23;20095;-88
2021/10/11 11:07:37;;;;;;;6.65;0.60;;;14.30;99.90;;;;;;6114934;23;20021;-87
2021/10/11 11:10:10;;;;;;;7.25;0.75;;;14.60;99.90;;;;;;6115243;23;20020;-88
2021/10/11 11:12:38;;;;;;;5.88;0.57;;;14.40;99.90;;;;;;6115244;23;20062;-88
2021/10/11 11:15:10;;;;;;;5.45;0.82;;;14.50;99.90;;;;;;6115358;23;20014;-88
2021/10/11 11:17:40;;;;;;;7.55;0.63;;;14.70;99.90;;;;;;6115326;23;20002;-88
2021/10/11 11:20:19;;;;;;;8.73;0.70;;;14.70;99.90;;;;;;6115447;23;20010;-88
2021/10/11 11:22:45;;;;;;;11.50;0.82;;;14.80;99.90;;;;;;6115321;23;20066;-87
2021/10/11 11:25:12;;;;;;;9.38;0.50;;;14.90;99.90;;;;;;6115211;23;20010;-87
2021/10/11 11:27:40;;;;;;;6.30;0.50;;;14.50;99.90;;;;;;6115078;23;20016;-89
2021/10/11 11:30:15;;;;;;;6.07;0.40;;;14.70;99.90;;;;;;6141245;23;20080;-88
2021/10/11 11:32:46;;;;;;;8.00;0.73;;;14.70;99.90;;;;;;6115373;23;20010;-87
2021/10/11 11:35:27;;;;;;;5.10;0.70;;;14.80;99.90;;;;;;6115060;23;20025;-87
2021/10/11 11:37:56;;;;;;;7.18;0.77;;;15.20;99.90;;;;;;6140663;23;20006;-88
2021/10/11 11:40:26;;;;;;;6.80;0.40;;;15.20;99.90;;;;;;6115159;23;20447;-88
2021/10/11 11:42:53;;;;;;;3.88;0.35;;;15.20;99.90;;;;;;6115299;23;20021;-89
2021/10/11 11:45:20;;;;;;;10.15;0.52;;;15.10;99.90;;;;;;6115059;23;20029;-87
2021/10/11 11:47:47;;;;;;;6.70;0.40;;;15.10;99.90;;;;;;6114804;23;20045;-88
2021/10/11 11:50:21;;;;;;;5.63;0.40;;;15.10;99.90;;;;;;6115212;23;20100;-88
2021/10/11 11:52:57;;;;;;;4.53;0.40;;;15.10;99.90;;;;;;6114762;23;20078;-87
2021/10/11 11:55:23;;;;;;;5.68;0.30;;;15.30;99.90;;;;;;6090858;23;20021;-87
2021/10/11 11:57:48;;;;;;;4.35;0.22;;;15.60;99.90;;;;;;6090859;23;20006;-88
2021/10/11 12:00:15;;;;;;;2.28;0.30;;;15.40;99.90;;;;;;6114794;23;20014;-87
2021/10/11 12:02:43;;;;;;;4.13;0.22;;;15.30;99.90;;;;;;6114964;23;20340;-87
2021/10/11 12:05:09;;;;;;;3.22;0.20;;;15.00;99.90;;;;;;6091100;23;20010;-89
2021/10/11 12:07:38;;;;;;;3.38;0.20;;;15.00;99.90;;;;;;6114585;23;20058;-88
2021/10/11 12:10:04;;;;;;;6.50;0.30;;;15.10;99.90;;;;;;6091031;23;20010;-87
2021/10/11 12:12:34;;;;;;;6.88;0.30;;;15.00;99.90;;;;;;6114983;23;20042;-88
2021/10/11 12:15:00;;;;;;;4.22;0.20;;;15.00;99.90;;;;;;6114571;23;20097;-87
2021/10/11 12:17:37;;;;;;;3.53;0.25;;;15.00;99.90;;;;;;6090620;23;20010;-88
2021/10/11 12:20:03;;;;;;;3.45;0.20;;;14.90;99.90;;;;;;6114736;23;20017;-88
2021/10/11 12:22:32;;;;;;;4.03;0.20;;;14.80;99.90;;;;;;6114450;23;20093;-88
2021/10/11 12:25:05;;;;;;;2.78;0.20;;;14.70;99.90;;;;;;6114815;23;20006;-86
2021/10/11 12:27:31;;;;;;;5.13;0.20;;;14.80;99.90;;;;;;6114481;23;20038;-87
2021/10/11 12:30:01;;;;;;;3.83;0.28;;;14.80;99.90;;;;;;6090386;23;20038;-88
2021/10/11 12:32:33;;;;;;;4.75;0.85;;;14.60;99.90;;;;;;6114374;23;20089;-88
2021/10/11 12:35:01;;;;;;;2.63;0.20;;;14.60;99.90;;;;;;6114797;23;20025;-87
2021/10/11 12:37:38;;;;;;;4.15;0.20;;;14.70;99.90;;;;;;6114290;23;20347;-87
2021/10/11 12:40:05;;;;;;;4.38;0.20;;;14.70;99.90;;;;;;6114638;23;20018;-87
2021/10/11 12:42:31;;;;;;;3.42;0.40;;;14.80;99.90;;;;;;6114361;23;20331;-87
2021/10/11 12:45:00;;;;;;;1.67;0.10;;;14.80;99.90;;;;;;6114367;23;20021;-87
2021/10/11 12:47:31;;;;;;;3.08;0.10;;;14.80;99.90;;;;;;6114105;23;20010;-88